Rocky Mount, VA

11:26 PM EST on December 17, 2014 (GMT -0500)
Figsboro, Virginia, USA | Change Station
CLOSE
Current Station
Personal Weather Station
Location: Martinsville, VA
Elevation: 1096 ft
Nearby Weather Stations

Elev 1096 ft 36.78 °N, 79.87 °W | Updated 7 minutes ago

Partly Cloudy
Partly Cloudy
39.4 °F
Feels Like 39 °F
N
2.7
Wind Variable Wind from NNW

Today
High -- | Low -- °F
--% Chance of Precip.
Yesterday
High -- | Low -- °F
Precip. -- in
7:26 AM 5:04 PM
Waning Crescent, 17% visible
Pressure 30.10 in
Visibility 10.0 miles
Clouds Clear
Windchill 39 °F
Dew Point 28 °F
Humidity 63%
Rainfall 0.00 in
Snow Depth Not available.
UV 0 out of 12
Pollen .10 out of 12
Air Quality Not available.
Flu Activity Not available.
METAR KROA 180354Z 32017G22KT 10SM CLR 04/M04 A3009 RMK AO2 SLP192 T00441044

More Conditions Fewer Conditions

Pressure 30.10 in
Visibility 10.0 miles
Clouds Clear
Windchill 39 °F
Dew Point 28 °F
Humidity 63%
Rainfall 0.00 in
Snow Depth Not available.
UV 0 out of 12
Pollen .10 out of 12
Air Quality Not available.
Flu Activity Not available.
METAR KROA 180354Z 32017G22KT 10SM CLR 04/M04 A3009 RMK AO2 SLP192 T00441044

More Conditions Fewer Conditions

10-Day Weather Forecast

Almanac

Astronomy

Dec. 17, 2014 Rise Set
Actual Time
Civil Twilight
Nautical Twilight
Astronomical Twilight
Moon
Length of Visible Light
Length of Day
Tomorrow will be .
, % of the Moon is Illuminated

Today's Extremes

State Highs State Lows

Community

WunderPhotos

Upload Photos

1,778,880 photos uploaded!

WunderBlogs® & News

Nearby

Air Quality

  Air Quality AQ Index Pollutant
Not available.

Snow Depth

Station Depth Elevation

Earthquake Activity

City Distance Mag. Time & Date
Minimum magnitude displayed is 2.5.

Coastal Water Temperatures

Place Temperature

Nearby Weather Stations